Kezdőlap
METAR-TAF:

METAR-TAF

Repülőterek :

Windham Airport

Willimantic, Connecticut, Amerikai Egyesült Államok

földrajzi szélesség: 41-44-31N, földrajzi hosszúság: 072-11-01W, magasság: 75 m

Jelenlegi meteorológiai megfigyelések

A jelentés 53 perccel ezelõtt készült, 16:52 UTC
Nyugat-délnyugati szél 16 kt széllökések: 24 kt
Hőmérséklet 8°C
Páratartalom 49%
Légköri nyomás 1005 hPa
Látótávolság: 16.1 km
Kevés felhő 6500 lábon

METAR: KIJD 151652Z AUTO 25016G24KT 10SM FEW065 08/M02 A2967 RMK AO2 SLP048 T00781022 $

Idő: 12:45 (17:45 UTC)


TAF: hiányzik

Meteorológiai megfigyelések és előrejelzések több, mint 4000 repülőtéren (METAR és TAF jelentéseket).

A térképen piros és sárga pontok jelzik az elérhető meteorológiai állomásokat.

Mozgassa az egeret a pont fölött, hogy megjelenjen az állomás neve.

Azután kattintson az időjárási megfigyelések és előrejelzések megtekintéséhez.

A térkép megváltoztatása: kattintson a fekete keresztel jelölt zöld gombra ráközelítéshez, a vonallal jelölt zöld gombra távolításhoz, vagy a zöld nyilakra a szomszédos térképek eléréséhez.


METAR-TAF: